sensor_id;sensor_type;location;lat;lon;timestamp;pressure;altitude;pressure_sealevel;temperature;humidity
38806;BME280;25635;51.146;17.162;2023-01-31T00:01:25;99465.27;;;2.37;94.21
38806;BME280;25635;51.146;17.162;2023-01-31T00:04:02;99465.45;;;2.38;94.06
38806;BME280;25635;51.146;17.162;2023-01-31T00:06:33;99469.27;;;2.39;93.75
38806;BME280;25635;51.146;17.162;2023-01-31T00:09:00;99471.69;;;2.40;93.26
38806;BME280;25635;51.146;17.162;2023-01-31T00:11:27;99470.48;;;2.41;92.92
38806;BME280;25635;51.146;17.162;2023-01-31T00:13:54;99473.94;;;2.42;92.62
38806;BME280;25635;51.146;17.162;2023-01-31T00:16:21;99474.83;;;2.43;92.24
38806;BME280;25635;51.146;17.162;2023-01-31T00:18:48;99475.20;;;2.46;92.52
38806;BME280;25635;51.146;17.162;2023-01-31T00:21:17;99478.13;;;2.47;91.81
38806;BME280;25635;51.146;17.162;2023-01-31T00:23:45;99486.94;;;2.49;91.78
38806;BME280;25635;51.146;17.162;2023-01-31T00:26:20;99494.02;;;2.50;91.61
38806;BME280;25635;51.146;17.162;2023-01-31T00:28:48;99500.23;;;2.51;91.51
38806;BME280;25635;51.146;17.162;2023-01-31T00:31:15;99499.36;;;2.51;91.37
38806;BME280;25635;51.146;17.162;2023-01-31T00:33:43;99498.16;;;2.51;91.59
38806;BME280;25635;51.146;17.162;2023-01-31T00:36:13;99504.37;;;2.51;91.53
38806;BME280;25635;51.146;17.162;2023-01-31T00:38:39;99508.48;;;2.52;91.19
38806;BME280;25635;51.146;17.162;2023-01-31T00:41:07;99510.73;;;2.52;91.25
38806;BME280;25635;51.146;17.162;2023-01-31T00:43:34;99507.61;;;2.50;90.79
38806;BME280;25635;51.146;17.162;2023-01-31T00:46:00;99512.24;;;2.50;90.64
38806;BME280;25635;51.146;17.162;2023-01-31T00:48:26;99516.52;;;2.49;90.18
38806;BME280;25635;51.146;17.162;2023-01-31T00:50:53;99517.05;;;2.48;90.26
38806;BME280;25635;51.146;17.162;2023-01-31T00:53:19;99517.20;;;2.48;89.26
38806;BME280;25635;51.146;17.162;2023-01-31T00:55:49;99517.73;;;2.49;89.04
38806;BME280;25635;51.146;17.162;2023-01-31T00:58:16;99524.44;;;2.48;89.14
38806;BME280;25635;51.146;17.162;2023-01-31T01:00:41;99535.60;;;2.46;89.07
38806;BME280;25635;51.146;17.162;2023-01-31T01:03:07;99534.04;;;2.45;89.83
38806;BME280;25635;51.146;17.162;2023-01-31T01:05:33;99535.02;;;2.41;89.91
38806;BME280;25635;51.146;17.162;2023-01-31T01:07:59;99539.11;;;2.39;90.40
38806;BME280;25635;51.146;17.162;2023-01-31T01:10:25;99540.62;;;2.36;90.31
38806;BME280;25635;51.146;17.162;2023-01-31T01:12:51;99549.90;;;2.35;90.42
38806;BME280;25635;51.146;17.162;2023-01-31T01:15:17;99553.16;;;2.35;91.28
38806;BME280;25635;51.146;17.162;2023-01-31T01:17:43;99552.45;;;2.33;90.65
38806;BME280;25635;51.146;17.162;2023-01-31T01:20:09;99548.99;;;2.32;90.45
38806;BME280;25635;51.146;17.162;2023-01-31T01:22:36;99552.93;;;2.32;90.16
38806;BME280;25635;51.146;17.162;2023-01-31T01:25:03;99547.59;;;2.31;89.80
38806;BME280;25635;51.146;17.162;2023-01-31T01:27:29;99550.52;;;2.31;89.34
38806;BME280;25635;51.146;17.162;2023-01-31T01:29:56;99545.53;;;2.31;88.47
38806;BME280;25635;51.146;17.162;2023-01-31T01:32:23;99545.20;;;2.32;87.35
38806;BME280;25635;51.146;17.162;2023-01-31T01:34:49;99545.21;;;2.33;87.43
38806;BME280;25635;51.146;17.162;2023-01-31T01:37:15;99550.02;;;2.32;86.07
38806;BME280;25635;51.146;17.162;2023-01-31T01:39:48;99561.38;;;2.31;86.35
38806;BME280;25635;51.146;17.162;2023-01-31T01:42:16;99572.55;;;2.32;85.55
38806;BME280;25635;51.146;17.162;2023-01-31T01:44:53;99572.55;;;2.32;85.70
38806;BME280;25635;51.146;17.162;2023-01-31T01:47:34;99579.94;;;2.30;85.24
38806;BME280;25635;51.146;17.162;2023-01-31T01:52:50;99591.36;;;2.24;85.87
38806;BME280;25635;51.146;17.162;2023-01-31T01:55:24;99593.05;;;2.21;85.95
38806;BME280;25635;51.146;17.162;2023-01-31T01:57:56;99596.45;;;2.19;86.66
38806;BME280;25635;51.146;17.162;2023-01-31T02:00:27;99599.98;;;2.15;85.98
38806;BME280;25635;51.146;17.162;2023-01-31T02:02:57;99601.52;;;2.14;84.61
38806;BME280;25635;51.146;17.162;2023-01-31T02:05:37;99600.33;;;2.15;84.88
38806;BME280;25635;51.146;17.162;2023-01-31T02:08:05;99603.80;;;2.17;84.43
38806;BME280;25635;51.146;17.162;2023-01-31T02:10:50;99608.31;;;2.20;83.92
38806;BME280;25635;51.146;17.162;2023-01-31T02:13:18;99612.48;;;2.21;85.50
38806;BME280;25635;51.146;17.162;2023-01-31T02:15:45;99615.02;;;2.20;84.16
38806;BME280;25635;51.146;17.162;2023-01-31T02:18:11;99614.66;;;2.19;84.25
38806;BME280;25635;51.146;17.162;2023-01-31T02:26:32;99634.62;;;2.19;83.89
38806;BME280;25635;51.146;17.162;2023-01-31T02:34:37;99641.53;;;2.10;82.72
38806;BME280;25635;51.146;17.162;2023-01-31T02:37:19;99642.70;;;2.08;83.03
38806;BME280;25635;51.146;17.162;2023-01-31T02:45:39;99670.78;;;1.92;85.62
38806;BME280;25635;51.146;17.162;2023-01-31T02:48:08;99680.13;;;1.86;86.16
38806;BME280;25635;51.146;17.162;2023-01-31T02:50:58;99680.70;;;1.80;86.70
38806;BME280;25635;51.146;17.162;2023-01-31T02:53:33;99685.23;;;1.75;86.96
38806;BME280;25635;51.146;17.162;2023-01-31T02:56:08;99683.46;;;1.71;87.16
38806;BME280;25635;51.146;17.162;2023-01-31T03:01:15;99695.73;;;1.66;87.39
38806;BME280;25635;51.146;17.162;2023-01-31T03:03:42;99708.71;;;1.63;87.63
38806;BME280;25635;51.146;17.162;2023-01-31T03:08:37;99715.51;;;1.59;88.04
38806;BME280;25635;51.146;17.162;2023-01-31T03:11:06;99722.34;;;1.56;88.57
38806;BME280;25635;51.146;17.162;2023-01-31T03:20:00;99744.45;;;1.53;88.94
38806;BME280;25635;51.146;17.162;2023-01-31T03:22:40;99739.98;;;1.54;88.85
38806;BME280;25635;51.146;17.162;2023-01-31T03:25:09;99752.68;;;1.53;88.74
38806;BME280;25635;51.146;17.162;2023-01-31T03:27:37;99753.00;;;1.52;88.95
38806;BME280;25635;51.146;17.162;2023-01-31T03:30:14;99753.52;;;1.52;89.21
38806;BME280;25635;51.146;17.162;2023-01-31T03:32:46;99762.10;;;1.51;88.26
38806;BME280;25635;51.146;17.162;2023-01-31T03:35:13;99764.54;;;1.53;87.79
38806;BME280;25635;51.146;17.162;2023-01-31T03:37:43;99775.39;;;1.54;87.93
38806;BME280;25635;51.146;17.162;2023-01-31T03:42:50;99781.27;;;1.48;88.22
38806;BME280;25635;51.146;17.162;2023-01-31T03:45:38;99776.05;;;1.38;88.32
38806;BME280;25635;51.146;17.162;2023-01-31T03:48:07;99783.34;;;1.25;89.08
38806;BME280;25635;51.146;17.162;2023-01-31T03:50:46;99772.27;;;1.15;89.64
38806;BME280;25635;51.146;17.162;2023-01-31T03:53:19;99775.33;;;1.06;89.84
38806;BME280;25635;51.146;17.162;2023-01-31T03:55:51;99772.79;;;1.00;89.77
38806;BME280;25635;51.146;17.162;2023-01-31T03:58:21;99782.18;;;0.98;89.53
38806;BME280;25635;51.146;17.162;2023-01-31T04:00:51;99780.34;;;0.99;89.23
38806;BME280;25635;51.146;17.162;2023-01-31T04:03:35;99788.12;;;1.02;89.41
38806;BME280;25635;51.146;17.162;2023-01-31T04:06:03;99787.98;;;1.04;89.35
38806;BME280;25635;51.146;17.162;2023-01-31T04:08:31;99796.11;;;1.06;88.91
38806;BME280;25635;51.146;17.162;2023-01-31T04:10:58;99797.33;;;1.07;89.08
38806;BME280;25635;51.146;17.162;2023-01-31T04:13:25;99804.22;;;1.08;89.08
38806;BME280;25635;51.146;17.162;2023-01-31T04:15:51;99809.18;;;1.07;88.93
38806;BME280;25635;51.146;17.162;2023-01-31T04:18:17;99806.46;;;1.09;88.65
38806;BME280;25635;51.146;17.162;2023-01-31T04:20:43;99809.09;;;1.10;88.92
38806;BME280;25635;51.146;17.162;2023-01-31T04:23:09;99810.66;;;1.11;88.25
38806;BME280;25635;51.146;17.162;2023-01-31T04:25:34;99809.98;;;1.12;88.24
38806;BME280;25635;51.146;17.162;2023-01-31T04:28:00;99812.75;;;1.13;87.57
38806;BME280;25635;51.146;17.162;2023-01-31T04:30:26;99812.96;;;1.15;87.14
38806;BME280;25635;51.146;17.162;2023-01-31T04:32:52;99817.15;;;1.17;86.78
38806;BME280;25635;51.146;17.162;2023-01-31T04:35:19;99820.10;;;1.18;86.60
38806;BME280;25635;51.146;17.162;2023-01-31T04:37:44;99827.90;;;1.21;85.70
38806;BME280;25635;51.146;17.162;2023-01-31T04:40:11;99826.92;;;1.24;85.14
38806;BME280;25635;51.146;17.162;2023-01-31T04:42:39;99825.29;;;1.27;84.89
38806;BME280;25635;51.146;17.162;2023-01-31T04:45:05;99830.13;;;1.28;85.56
38806;BME280;25635;51.146;17.162;2023-01-31T04:47:31;99835.75;;;1.27;85.07
38806;BME280;25635;51.146;17.162;2023-01-31T04:49:57;99835.98;;;1.28;84.07
38806;BME280;25635;51.146;17.162;2023-01-31T04:52:23;99839.48;;;1.32;83.84
38806;BME280;25635;51.146;17.162;2023-01-31T04:54:49;99845.20;;;1.34;84.09
38806;BME280;25635;51.146;17.162;2023-01-31T04:57:15;99845.77;;;1.36;83.50
38806;BME280;25635;51.146;17.162;2023-01-31T04:59:41;99842.70;;;1.37;83.21
38806;BME280;25635;51.146;17.162;2023-01-31T05:02:07;99843.56;;;1.37;83.96
38806;BME280;25635;51.146;17.162;2023-01-31T05:04:33;99843.56;;;1.37;83.75
38806;BME280;25635;51.146;17.162;2023-01-31T05:06:59;99845.98;;;1.38;84.15
38806;BME280;25635;51.146;17.162;2023-01-31T05:09:25;99848.41;;;1.39;83.17
38806;BME280;25635;51.146;17.162;2023-01-31T05:11:51;99845.20;;;1.40;83.14
38806;BME280;25635;51.146;17.162;2023-01-31T05:14:17;99846.23;;;1.40;82.93
38806;BME280;25635;51.146;17.162;2023-01-31T05:16:45;99848.09;;;1.40;83.30
38806;BME280;25635;51.146;17.162;2023-01-31T05:19:13;99856.15;;;1.40;82.65
38806;BME280;25635;51.146;17.162;2023-01-31T05:21:39;99854.79;;;1.40;82.62
38806;BME280;25635;51.146;17.162;2023-01-31T05:24:26;99859.44;;;1.40;82.44
38806;BME280;25635;51.146;17.162;2023-01-31T05:26:52;99864.26;;;1.40;82.47
38806;BME280;25635;51.146;17.162;2023-01-31T05:29:31;99868.04;;;1.41;81.74
38806;BME280;25635;51.146;17.162;2023-01-31T05:31:59;99876.44;;;1.39;82.90
38806;BME280;25635;51.146;17.162;2023-01-31T05:34:26;99880.36;;;1.39;82.41
38806;BME280;25635;51.146;17.162;2023-01-31T05:36:54;99882.28;;;1.39;81.94
38806;BME280;25635;51.146;17.162;2023-01-31T05:39:20;99881.48;;;1.42;81.73
38806;BME280;25635;51.146;17.162;2023-01-31T05:41:47;99892.50;;;1.44;81.83
38806;BME280;25635;51.146;17.162;2023-01-31T05:44:12;99895.77;;;1.44;82.20
38806;BME280;25635;51.146;17.162;2023-01-31T05:46:39;99902.46;;;1.43;81.93
38806;BME280;25635;51.146;17.162;2023-01-31T05:49:05;99900.35;;;1.41;81.60
38806;BME280;25635;51.146;17.162;2023-01-31T05:51:31;99910.53;;;1.44;81.41
38806;BME280;25635;51.146;17.162;2023-01-31T05:53:57;99914.53;;;1.45;82.09
38806;BME280;25635;51.146;17.162;2023-01-31T05:56:23;99914.36;;;1.45;82.13
38806;BME280;25635;51.146;17.162;2023-01-31T05:58:49;99915.88;;;1.44;82.10
38806;BME280;25635;51.146;17.162;2023-01-31T06:01:17;99924.30;;;1.44;82.02
38806;BME280;25635;51.146;17.162;2023-01-31T06:03:44;99932.21;;;1.44;82.05
38806;BME280;25635;51.146;17.162;2023-01-31T06:06:11;99931.19;;;1.45;81.69
38806;BME280;25635;51.146;17.162;2023-01-31T06:08:37;99928.65;;;1.47;82.27
38806;BME280;25635;51.146;17.162;2023-01-31T06:11:03;99922.98;;;1.47;81.37
38806;BME280;25635;51.146;17.162;2023-01-31T06:13:30;99929.86;;;1.47;81.74
38806;BME280;25635;51.146;17.162;2023-01-31T06:15:56;99933.77;;;1.46;81.52
38806;BME280;25635;51.146;17.162;2023-01-31T06:18:23;99944.07;;;1.44;80.43
38806;BME280;25635;51.146;17.162;2023-01-31T06:20:49;99955.95;;;1.46;80.64
38806;BME280;25635;51.146;17.162;2023-01-31T06:23:15;99959.06;;;1.47;80.77
38806;BME280;25635;51.146;17.162;2023-01-31T06:25:41;99965.27;;;1.47;80.61
38806;BME280;25635;51.146;17.162;2023-01-31T06:28:07;99969.05;;;1.48;80.01
38806;BME280;25635;51.146;17.162;2023-01-31T06:30:33;99970.79;;;1.48;80.33
38806;BME280;25635;51.146;17.162;2023-01-31T06:32:59;99974.88;;;1.47;80.00
38806;BME280;25635;51.146;17.162;2023-01-31T06:35:25;99979.67;;;1.46;79.25
38806;BME280;25635;51.146;17.162;2023-01-31T06:37:51;99981.75;;;1.47;78.67
38806;BME280;25635;51.146;17.162;2023-01-31T06:40:17;99984.70;;;1.48;78.96
38806;BME280;25635;51.146;17.162;2023-01-31T06:42:43;99980.41;;;1.48;78.48
38806;BME280;25635;51.146;17.162;2023-01-31T06:45:09;99982.48;;;1.49;78.37
38806;BME280;25635;51.146;17.162;2023-01-31T06:47:35;99984.90;;;1.49;79.63
38806;BME280;25635;51.146;17.162;2023-01-31T06:50:01;99988.80;;;1.47;78.38
38806;BME280;25635;51.146;17.162;2023-01-31T06:52:27;99989.48;;;1.46;79.07
38806;BME280;25635;51.146;17.162;2023-01-31T06:54:53;99993.59;;;1.46;78.44
38806;BME280;25635;51.146;17.162;2023-01-31T06:57:19;99999.30;;;1.48;79.57
38806;BME280;25635;51.146;17.162;2023-01-31T06:59:45;99996.71;;;1.48;79.01
38806;BME280;25635;51.146;17.162;2023-01-31T07:02:11;99995.55;;;1.49;79.30
38806;BME280;25635;51.146;17.162;2023-01-31T07:07:58;99999.80;;;1.47;79.28
38806;BME280;25635;51.146;17.162;2023-01-31T07:10:24;100004.27;;;1.47;79.12
38806;BME280;25635;51.146;17.162;2023-01-31T07:16:32;100002.09;;;1.49;79.70
38806;BME280;25635;51.146;17.162;2023-01-31T07:18:58;100003.83;;;1.50;79.92
38806;BME280;25635;51.146;17.162;2023-01-31T07:21:24;100008.63;;;1.50;79.33
38806;BME280;25635;51.146;17.162;2023-01-31T07:23:51;100012.92;;;1.50;80.30
38806;BME280;25635;51.146;17.162;2023-01-31T07:26:17;100018.41;;;1.49;80.50
38806;BME280;25635;51.146;17.162;2023-01-31T07:28:43;100028.86;;;1.48;80.59
38806;BME280;25635;51.146;17.162;2023-01-31T07:31:11;100029.85;;;1.46;80.50
38806;BME280;25635;51.146;17.162;2023-01-31T07:33:38;100032.27;;;1.47;80.44
38806;BME280;25635;51.146;17.162;2023-01-31T07:36:06;100037.44;;;1.47;80.00
38806;BME280;25635;51.146;17.162;2023-01-31T07:38:33;100042.45;;;1.48;80.52
38806;BME280;25635;51.146;17.162;2023-01-31T07:41:01;100051.40;;;1.49;80.30
38806;BME280;25635;51.146;17.162;2023-01-31T07:43:28;100059.83;;;1.49;81.04
38806;BME280;25635;51.146;17.162;2023-01-31T07:45:55;100064.77;;;1.48;80.59
38806;BME280;25635;51.146;17.162;2023-01-31T07:48:21;100070.62;;;1.48;79.96
38806;BME280;25635;51.146;17.162;2023-01-31T07:50:59;100070.81;;;1.49;80.59
38806;BME280;25635;51.146;17.162;2023-01-31T07:53:41;100076.70;;;1.51;80.59
38806;BME280;25635;51.146;17.162;2023-01-31T07:56:17;100076.20;;;1.51;81.05
38806;BME280;25635;51.146;17.162;2023-01-31T07:58:45;100076.89;;;1.51;81.10
38806;BME280;25635;51.146;17.162;2023-01-31T08:01:20;100078.47;;;1.52;80.60
38806;BME280;25635;51.146;17.162;2023-01-31T08:04:07;100075.89;;;1.52;80.46
38806;BME280;25635;51.146;17.162;2023-01-31T08:06:33;100078.33;;;1.53;80.55
38806;BME280;25635;51.146;17.162;2023-01-31T08:09:00;100077.67;;;1.55;81.09
38806;BME280;25635;51.146;17.162;2023-01-31T08:11:26;100077.58;;;1.57;80.94
38806;BME280;25635;51.146;17.162;2023-01-31T08:13:53;100081.04;;;1.58;80.65
38806;BME280;25635;51.146;17.162;2023-01-31T08:16:20;100087.24;;;1.59;81.01
38806;BME280;25635;51.146;17.162;2023-01-31T08:18:47;100087.44;;;1.60;80.42
38806;BME280;25635;51.146;17.162;2023-01-31T08:21:14;100086.80;;;1.62;79.91
38806;BME280;25635;51.146;17.162;2023-01-31T08:23:41;100084.45;;;1.65;79.39
38806;BME280;25635;51.146;17.162;2023-01-31T08:26:19;100087.83;;;1.69;79.01
38806;BME280;25635;51.146;17.162;2023-01-31T08:28:48;100090.88;;;1.74;78.78
38806;BME280;25635;51.146;17.162;2023-01-31T08:31:17;100090.34;;;1.79;79.71
38806;BME280;25635;51.146;17.162;2023-01-31T08:33:43;100088.53;;;1.82;79.53
38806;BME280;25635;51.146;17.162;2023-01-31T08:38:37;100091.31;;;1.91;78.82
38806;BME280;25635;51.146;17.162;2023-01-31T08:41:04;100093.14;;;1.95;78.35
38806;BME280;25635;51.146;17.162;2023-01-31T08:43:30;100096.67;;;1.98;78.37
38806;BME280;25635;51.146;17.162;2023-01-31T08:45:57;100086.09;;;2.01;78.49
38806;BME280;25635;51.146;17.162;2023-01-31T08:48:23;100079.75;;;2.03;78.17
38806;BME280;25635;51.146;17.162;2023-01-31T08:50:50;100087.18;;;2.04;79.84
38806;BME280;25635;51.146;17.162;2023-01-31T08:53:16;100090.16;;;2.07;80.20
38806;BME280;25635;51.146;17.162;2023-01-31T08:55:43;100089.89;;;2.09;79.77
38806;BME280;25635;51.146;17.162;2023-01-31T08:58:09;100089.95;;;2.12;79.80
38806;BME280;25635;51.146;17.162;2023-01-31T09:00:36;100096.58;;;2.15;79.89
38806;BME280;25635;51.146;17.162;2023-01-31T09:03:03;100096.48;;;2.19;80.16
38806;BME280;25635;51.146;17.162;2023-01-31T09:05:30;100100.48;;;2.21;79.59
38806;BME280;25635;51.146;17.162;2023-01-31T09:07:57;100109.68;;;2.24;79.79
38806;BME280;25635;51.146;17.162;2023-01-31T09:10:24;100110.40;;;2.25;79.60
38806;BME280;25635;51.146;17.162;2023-01-31T09:12:51;100110.63;;;2.28;79.72
38806;BME280;25635;51.146;17.162;2023-01-31T09:15:18;100113.13;;;2.32;80.15
38806;BME280;25635;51.146;17.162;2023-01-31T09:17:44;100116.66;;;2.35;79.37
38806;BME280;25635;51.146;17.162;2023-01-31T09:20:10;100118.25;;;2.37;79.44
38806;BME280;25635;51.146;17.162;2023-01-31T09:22:37;100120.69;;;2.38;79.16
38806;BME280;25635;51.146;17.162;2023-01-31T09:25:03;100124.81;;;2.38;78.17
38806;BME280;25635;51.146;17.162;2023-01-31T09:27:29;100128.46;;;2.39;79.13
38806;BME280;25635;51.146;17.162;2023-01-31T09:29:56;100127.10;;;2.40;78.71
38806;BME280;25635;51.146;17.162;2023-01-31T09:32:22;100128.19;;;2.42;78.80
38806;BME280;25635;51.146;17.162;2023-01-31T09:34:48;100128.20;;;2.43;78.19
38806;BME280;25635;51.146;17.162;2023-01-31T09:37:15;100135.10;;;2.43;78.11
38806;BME280;25635;51.146;17.162;2023-01-31T09:39:41;100136.31;;;2.44;78.48
38806;BME280;25635;51.146;17.162;2023-01-31T09:42:18;100135.48;;;2.45;79.12
38806;BME280;25635;51.146;17.162;2023-01-31T09:44:55;100138.96;;;2.47;79.13
38806;BME280;25635;51.146;17.162;2023-01-31T09:47:42;100137.32;;;2.51;78.84
38806;BME280;25635;51.146;17.162;2023-01-31T09:50:39;100134.02;;;2.56;79.89
38806;BME280;25635;51.146;17.162;2023-01-31T09:53:07;100132.62;;;2.62;79.20
38806;BME280;25635;51.146;17.162;2023-01-31T09:55:38;100133.19;;;2.66;78.96
38806;BME280;25635;51.146;17.162;2023-01-31T10:06:58;100117.98;;;2.77;79.54
38806;BME280;25635;51.146;17.162;2023-01-31T10:09:42;100115.86;;;2.83;80.12
38806;BME280;25635;51.146;17.162;2023-01-31T10:12:17;100112.04;;;2.90;79.95
38806;BME280;25635;51.146;17.162;2023-01-31T10:14:51;100109.78;;;2.97;80.23
38806;BME280;25635;51.146;17.162;2023-01-31T10:17:24;100112.64;;;3.02;78.74
38806;BME280;25635;51.146;17.162;2023-01-31T10:20:20;100109.20;;;3.02;79.13
38806;BME280;25635;51.146;17.162;2023-01-31T10:22:56;100106.08;;;3.01;79.90
38806;BME280;25635;51.146;17.162;2023-01-31T10:25:29;100105.37;;;3.00;80.25
38806;BME280;25635;51.146;17.162;2023-01-31T10:28:05;100102.95;;;2.99;80.57
38806;BME280;25635;51.146;17.162;2023-01-31T10:30:46;100101.24;;;3.00;80.67
38806;BME280;25635;51.146;17.162;2023-01-31T10:33:23;100102.29;;;3.01;80.74
38806;BME280;25635;51.146;17.162;2023-01-31T10:35:56;100107.39;;;3.06;80.55
38806;BME280;25635;51.146;17.162;2023-01-31T10:38:37;100105.03;;;3.09;80.46
38806;BME280;25635;51.146;17.162;2023-01-31T10:41:20;100105.04;;;3.09;80.78
38806;BME280;25635;51.146;17.162;2023-01-31T10:44:00;100107.99;;;3.11;81.11
38806;BME280;25635;51.146;17.162;2023-01-31T10:46:27;100104.86;;;3.09;81.72
38806;BME280;25635;51.146;17.162;2023-01-31T10:48:53;100102.25;;;3.07;81.77
38806;BME280;25635;51.146;17.162;2023-01-31T10:51:41;100100.29;;;3.04;81.78
38806;BME280;25635;51.146;17.162;2023-01-31T10:56:45;100097.85;;;3.11;82.72
38806;BME280;25635;51.146;17.162;2023-01-31T10:59:35;100093.28;;;3.15;82.48
38806;BME280;25635;51.146;17.162;2023-01-31T11:02:03;100093.23;;;3.21;82.23
38806;BME280;25635;51.146;17.162;2023-01-31T11:04:37;100084.56;;;3.27;81.90
38806;BME280;25635;51.146;17.162;2023-01-31T11:07:05;100084.19;;;3.34;82.51
38806;BME280;25635;51.146;17.162;2023-01-31T11:09:35;100085.50;;;3.41;82.03
38806;BME280;25635;51.146;17.162;2023-01-31T11:12:04;100078.13;;;3.43;81.47
38806;BME280;25635;51.146;17.162;2023-01-31T11:14:31;100075.41;;;3.45;82.00
38806;BME280;25635;51.146;17.162;2023-01-31T11:17:14;100066.36;;;3.49;82.00
38806;BME280;25635;51.146;17.162;2023-01-31T11:19:51;100068.80;;;3.51;81.69
38806;BME280;25635;51.146;17.162;2023-01-31T11:22:28;100068.95;;;3.50;81.78
38806;BME280;25635;51.146;17.162;2023-01-31T11:24:57;100064.30;;;3.50;81.07
38806;BME280;25635;51.146;17.162;2023-01-31T11:27:32;100061.17;;;3.48;81.05
38806;BME280;25635;51.146;17.162;2023-01-31T11:30:00;100059.41;;;3.46;81.11
38806;BME280;25635;51.146;17.162;2023-01-31T11:32:32;100047.52;;;3.47;80.93
38806;BME280;25635;51.146;17.162;2023-01-31T11:35:03;100044.58;;;3.45;81.01
38806;BME280;25635;51.146;17.162;2023-01-31T11:37:31;100044.92;;;3.45;81.32
38806;BME280;25635;51.146;17.162;2023-01-31T11:40:40;100039.94;;;3.47;81.51
38806;BME280;25635;51.146;17.162;2023-01-31T11:42:55;100038.71;;;3.45;81.58
38806;BME280;25635;51.146;17.162;2023-01-31T11:45:28;100031.64;;;3.44;81.61
38806;BME280;25635;51.146;17.162;2023-01-31T11:47:58;100034.53;;;3.42;81.45
38806;BME280;25635;51.146;17.162;2023-01-31T11:50:33;100032.45;;;3.42;81.00
38806;BME280;25635;51.146;17.162;2023-01-31T11:53:19;100030.55;;;3.41;80.94
38806;BME280;25635;51.146;17.162;2023-01-31T11:55:48;100025.07;;;3.44;81.55
38806;BME280;25635;51.146;17.162;2023-01-31T11:58:31;100016.52;;;3.48;81.64
38806;BME280;25635;51.146;17.162;2023-01-31T12:01:04;100013.48;;;3.51;81.85
38806;BME280;25635;51.146;17.162;2023-01-31T12:03:31;100004.38;;;3.53;81.28
38806;BME280;25635;51.146;17.162;2023-01-31T12:06:01;100004.40;;;3.55;81.26
38806;BME280;25635;51.146;17.162;2023-01-31T12:10:56;100003.02;;;3.54;81.19
38806;BME280;25635;51.146;17.162;2023-01-31T12:13:25;99998.80;;;3.50;81.44
38806;BME280;25635;51.146;17.162;2023-01-31T12:16:06;99994.58;;;3.45;82.20
38806;BME280;25635;51.146;17.162;2023-01-31T12:21:23;99991.77;;;3.32;83.17
38806;BME280;25635;51.146;17.162;2023-01-31T12:26:48;99989.08;;;3.27;84.23
38806;BME280;25635;51.146;17.162;2023-01-31T12:32:36;99987.40;;;3.10;85.43
38806;BME280;25635;51.146;17.162;2023-01-31T12:43:08;99968.21;;;2.97;87.04
38806;BME280;25635;51.146;17.162;2023-01-31T12:55:11;99959.85;;;3.01;86.81
38806;BME280;25635;51.146;17.162;2023-01-31T13:01:09;99949.12;;;3.08;86.48
38806;BME280;25635;51.146;17.162;2023-01-31T13:03:58;99943.16;;;3.12;86.57
38806;BME280;25635;51.146;17.162;2023-01-31T13:06:35;99940.61;;;3.14;86.31
38806;BME280;25635;51.146;17.162;2023-01-31T13:09:37;99934.77;;;3.15;85.97
38806;BME280;25635;51.146;17.162;2023-01-31T13:12:12;99935.66;;;3.17;86.18
38806;BME280;25635;51.146;17.162;2023-01-31T13:15:02;99929.33;;;3.18;86.10
38806;BME280;25635;51.146;17.162;2023-01-31T13:17:32;99932.98;;;3.20;86.21
38806;BME280;25635;51.146;17.162;2023-01-31T13:20:13;99926.77;;;3.20;86.67
38806;BME280;25635;51.146;17.162;2023-01-31T13:22:47;99933.30;;;3.19;86.62
38806;BME280;25635;51.146;17.162;2023-01-31T13:30:32;99915.61;;;3.12;87.16
38806;BME280;25635;51.146;17.162;2023-01-31T13:33:11;99915.26;;;3.12;87.24
38806;BME280;25635;51.146;17.162;2023-01-31T13:35:40;99909.37;;;3.10;87.36
38806;BME280;25635;51.146;17.162;2023-01-31T13:38:13;99906.75;;;3.09;87.30
38806;BME280;25635;51.146;17.162;2023-01-31T13:40:52;99904.82;;;3.06;87.25
38806;BME280;25635;51.146;17.162;2023-01-31T13:43:19;99905.81;;;3.03;87.21
38806;BME280;25635;51.146;17.162;2023-01-31T13:45:57;99899.23;;;3.02;87.10
38806;BME280;25635;51.146;17.162;2023-01-31T13:48:45;99896.28;;;3.02;87.16
38806;BME280;25635;51.146;17.162;2023-01-31T13:51:29;99891.81;;;3.01;87.24
38806;BME280;25635;51.146;17.162;2023-01-31T13:54:03;99894.92;;;3.01;86.98
38806;BME280;25635;51.146;17.162;2023-01-31T13:56:34;99891.48;;;3.01;86.81
38806;BME280;25635;51.146;17.162;2023-01-31T13:59:01;99890.92;;;3.00;86.65
38806;BME280;25635;51.146;17.162;2023-01-31T14:01:31;99890.75;;;3.00;86.72
38806;BME280;25635;51.146;17.162;2023-01-31T14:09:30;99888.65;;;2.98;87.09
38806;BME280;25635;51.146;17.162;2023-01-31T14:14:41;99876.91;;;2.97;87.07
38806;BME280;25635;51.146;17.162;2023-01-31T14:20:02;99872.20;;;2.94;86.83
38806;BME280;25635;51.146;17.162;2023-01-31T14:22:37;99868.57;;;2.92;86.87
38806;BME280;25635;51.146;17.162;2023-01-31T14:25:13;99870.45;;;2.91;86.66
38806;BME280;25635;51.146;17.162;2023-01-31T14:30:50;99868.30;;;2.87;87.37
38806;BME280;25635;51.146;17.162;2023-01-31T14:33:19;99865.54;;;2.86;87.70
38806;BME280;25635;51.146;17.162;2023-01-31T14:38:41;99857.61;;;2.76;88.47
38806;BME280;25635;51.146;17.162;2023-01-31T14:46:49;99849.64;;;2.64;88.88
38806;BME280;25635;51.146;17.162;2023-01-31T14:57:33;99835.06;;;2.48;89.72
38806;BME280;25635;51.146;17.162;2023-01-31T15:02:49;99841.05;;;2.46;89.83
38806;BME280;25635;51.146;17.162;2023-01-31T15:13:39;99828.42;;;2.43;90.46
38806;BME280;25635;51.146;17.162;2023-01-31T15:16:30;99826.88;;;2.43;90.85
38806;BME280;25635;51.146;17.162;2023-01-31T15:19:18;99823.25;;;2.42;91.00
38806;BME280;25635;51.146;17.162;2023-01-31T15:21:57;99826.66;;;2.40;91.22
38806;BME280;25635;51.146;17.162;2023-01-31T15:27:05;99827.33;;;2.40;91.08
38806;BME280;25635;51.146;17.162;2023-01-31T15:29:48;99824.42;;;2.41;91.26
38806;BME280;25635;51.146;17.162;2023-01-31T15:32:21;99822.36;;;2.41;91.35